sensor_id;sensor_type;location;lat;lon;timestamp;P1;durP1;ratioP1;P2;durP2;ratioP2
58302;SDS011;44109;52.398;7.024;2023-05-15T00:00:00;64.38;;;60.60;;
58302;SDS011;44109;52.398;7.024;2023-05-15T00:02:30;63.33;;;60.03;;
58302;SDS011;44109;52.398;7.024;2023-05-15T00:04:59;63.83;;;59.63;;
58302;SDS011;44109;52.398;7.024;2023-05-15T00:07:27;63.33;;;59.67;;
58302;SDS011;44109;52.398;7.024;2023-05-15T00:09:55;65.45;;;61.67;;
58302;SDS011;44109;52.398;7.024;2023-05-15T00:12:23;67.70;;;63.67;;
58302;SDS011;44109;52.398;7.024;2023-05-15T00:14:52;64.20;;;60.45;;
58302;SDS011;44109;52.398;7.024;2023-05-15T00:17:19;62.53;;;58.22;;
58302;SDS011;44109;52.398;7.024;2023-05-15T00:19:47;64.68;;;60.78;;
58302;SDS011;44109;52.398;7.024;2023-05-15T00:22:15;64.63;;;60.97;;
58302;SDS011;44109;52.398;7.024;2023-05-15T00:24:42;67.15;;;62.88;;
58302;SDS011;44109;52.398;7.024;2023-05-15T00:27:10;64.13;;;60.83;;
58302;SDS011;44109;52.398;7.024;2023-05-15T00:29:38;62.03;;;58.33;;
58302;SDS011;44109;52.398;7.024;2023-05-15T00:32:07;65.15;;;61.33;;
58302;SDS011;44109;52.398;7.024;2023-05-15T00:34:34;62.92;;;59.35;;
58302;SDS011;44109;52.398;7.024;2023-05-15T00:37:02;64.72;;;61.15;;
58302;SDS011;44109;52.398;7.024;2023-05-15T00:39:30;63.78;;;60.03;;
58302;SDS011;44109;52.398;7.024;2023-05-15T00:41:58;64.65;;;60.88;;
58302;SDS011;44109;52.398;7.024;2023-05-15T00:44:26;63.53;;;60.30;;
58302;SDS011;44109;52.398;7.024;2023-05-15T00:46:56;65.88;;;62.13;;
58302;SDS011;44109;52.398;7.024;2023-05-15T00:49:28;66.97;;;62.95;;
58302;SDS011;44109;52.398;7.024;2023-05-15T00:51:57;63.80;;;60.05;;
58302;SDS011;44109;52.398;7.024;2023-05-15T00:54:28;64.80;;;60.88;;
58302;SDS011;44109;52.398;7.024;2023-05-15T00:56:56;63.85;;;60.08;;
58302;SDS011;44109;52.398;7.024;2023-05-15T00:59:26;65.07;;;61.20;;
58302;SDS011;44109;52.398;7.024;2023-05-15T01:01:56;63.17;;;59.53;;
58302;SDS011;44109;52.398;7.024;2023-05-15T01:04:24;64.35;;;60.63;;
58302;SDS011;44109;52.398;7.024;2023-05-15T01:06:53;62.80;;;59.15;;
58302;SDS011;44109;52.398;7.024;2023-05-15T01:09:22;65.35;;;60.85;;
58302;SDS011;44109;52.398;7.024;2023-05-15T01:11:52;63.30;;;59.55;;
58302;SDS011;44109;52.398;7.024;2023-05-15T01:14:23;61.70;;;58.33;;
58302;SDS011;44109;52.398;7.024;2023-05-15T01:16:52;61.22;;;57.20;;
58302;SDS011;44109;52.398;7.024;2023-05-15T01:19:19;62.25;;;58.58;;
58302;SDS011;44109;52.398;7.024;2023-05-15T01:22:02;61.13;;;57.47;;
58302;SDS011;44109;52.398;7.024;2023-05-15T01:28:21;61.20;;;57.30;;
58302;SDS011;44109;52.398;7.024;2023-05-15T01:30:58;65.63;;;61.42;;
58302;SDS011;44109;52.398;7.024;2023-05-15T01:33:42;60.83;;;57.20;;
58302;SDS011;44109;52.398;7.024;2023-05-15T01:36:13;65.75;;;61.45;;
58302;SDS011;44109;52.398;7.024;2023-05-15T01:38:49;63.28;;;59.35;;
58302;SDS011;44109;52.398;7.024;2023-05-15T01:41:21;62.90;;;58.83;;
58302;SDS011;44109;52.398;7.024;2023-05-15T01:43:58;65.65;;;61.50;;
58302;SDS011;44109;52.398;7.024;2023-05-15T01:46:33;61.40;;;57.53;;
58302;SDS011;44109;52.398;7.024;2023-05-15T01:49:05;63.03;;;58.70;;
58302;SDS011;44109;52.398;7.024;2023-05-15T01:51:37;62.75;;;58.63;;
58302;SDS011;44109;52.398;7.024;2023-05-15T01:54:08;62.40;;;58.45;;
58302;SDS011;44109;52.398;7.024;2023-05-15T01:56:38;61.08;;;57.15;;
58302;SDS011;44109;52.398;7.024;2023-05-15T01:59:11;62.20;;;58.17;;
58302;SDS011;44109;52.398;7.024;2023-05-15T02:01:41;59.80;;;55.88;;
58302;SDS011;44109;52.398;7.024;2023-05-15T02:04:11;57.92;;;54.30;;
58302;SDS011;44109;52.398;7.024;2023-05-15T02:06:41;59.00;;;55.45;;
58302;SDS011;44109;52.398;7.024;2023-05-15T02:09:11;58.22;;;54.30;;
58302;SDS011;44109;52.398;7.024;2023-05-15T02:11:40;58.45;;;54.72;;
58302;SDS011;44109;52.398;7.024;2023-05-15T02:14:10;57.80;;;53.78;;
58302;SDS011;44109;52.398;7.024;2023-05-15T02:16:40;56.53;;;52.80;;
58302;SDS011;44109;52.398;7.024;2023-05-15T02:19:08;55.05;;;51.58;;
58302;SDS011;44109;52.398;7.024;2023-05-15T02:21:36;56.47;;;52.55;;
58302;SDS011;44109;52.398;7.024;2023-05-15T02:24:04;52.10;;;48.83;;
58302;SDS011;44109;52.398;7.024;2023-05-15T02:26:34;49.03;;;45.60;;
58302;SDS011;44109;52.398;7.024;2023-05-15T02:29:17;50.90;;;47.65;;
58302;SDS011;44109;52.398;7.024;2023-05-15T02:31:51;55.50;;;51.70;;
58302;SDS011;44109;52.398;7.024;2023-05-15T02:34:31;56.05;;;52.30;;
58302;SDS011;44109;52.398;7.024;2023-05-15T02:37:12;51.45;;;47.90;;
58302;SDS011;44109;52.398;7.024;2023-05-15T02:39:46;51.92;;;47.83;;
58302;SDS011;44109;52.398;7.024;2023-05-15T02:42:22;49.78;;;45.60;;
58302;SDS011;44109;52.398;7.024;2023-05-15T02:44:52;58.30;;;53.38;;
58302;SDS011;44109;52.398;7.024;2023-05-15T02:47:21;49.83;;;45.75;;
58302;SDS011;44109;52.398;7.024;2023-05-15T02:49:52;49.88;;;46.08;;
58302;SDS011;44109;52.398;7.024;2023-05-15T02:52:21;46.35;;;42.60;;
58302;SDS011;44109;52.398;7.024;2023-05-15T02:54:50;46.42;;;42.08;;
58302;SDS011;44109;52.398;7.024;2023-05-15T02:57:18;44.80;;;40.75;;
58302;SDS011;44109;52.398;7.024;2023-05-15T02:59:45;47.20;;;43.35;;
58302;SDS011;44109;52.398;7.024;2023-05-15T03:02:14;44.95;;;41.00;;
58302;SDS011;44109;52.398;7.024;2023-05-15T03:04:42;45.55;;;41.55;;
58302;SDS011;44109;52.398;7.024;2023-05-15T03:07:10;43.38;;;39.53;;
58302;SDS011;44109;52.398;7.024;2023-05-15T03:09:39;46.65;;;42.92;;
58302;SDS011;44109;52.398;7.024;2023-05-15T03:12:07;45.13;;;41.03;;
58302;SDS011;44109;52.398;7.024;2023-05-15T03:14:36;45.50;;;40.78;;
58302;SDS011;44109;52.398;7.024;2023-05-15T03:17:04;45.75;;;41.78;;
58302;SDS011;44109;52.398;7.024;2023-05-15T03:19:33;45.30;;;41.10;;
58302;SDS011;44109;52.398;7.024;2023-05-15T03:22:00;41.35;;;37.65;;
58302;SDS011;44109;52.398;7.024;2023-05-15T03:24:28;42.72;;;38.75;;
58302;SDS011;44109;52.398;7.024;2023-05-15T03:26:56;43.42;;;39.45;;
58302;SDS011;44109;52.398;7.024;2023-05-15T03:29:23;39.65;;;36.05;;
58302;SDS011;44109;52.398;7.024;2023-05-15T03:31:51;42.38;;;38.95;;
58302;SDS011;44109;52.398;7.024;2023-05-15T03:34:18;41.67;;;37.60;;
58302;SDS011;44109;52.398;7.024;2023-05-15T03:36:47;43.42;;;39.45;;
58302;SDS011;44109;52.398;7.024;2023-05-15T03:39:15;40.22;;;36.75;;
58302;SDS011;44109;52.398;7.024;2023-05-15T03:41:43;41.05;;;37.00;;
58302;SDS011;44109;52.398;7.024;2023-05-15T03:44:10;42.00;;;38.42;;
58302;SDS011;44109;52.398;7.024;2023-05-15T03:46:38;37.53;;;34.40;;
58302;SDS011;44109;52.398;7.024;2023-05-15T03:49:05;43.05;;;39.30;;
58302;SDS011;44109;52.398;7.024;2023-05-15T03:51:33;42.28;;;38.58;;
58302;SDS011;44109;52.398;7.024;2023-05-15T03:54:03;40.75;;;37.55;;
58302;SDS011;44109;52.398;7.024;2023-05-15T03:56:31;39.85;;;36.30;;
58302;SDS011;44109;52.398;7.024;2023-05-15T03:58:59;41.90;;;37.92;;
58302;SDS011;44109;52.398;7.024;2023-05-15T04:01:27;40.03;;;36.83;;
58302;SDS011;44109;52.398;7.024;2023-05-15T04:03:55;36.67;;;33.38;;
58302;SDS011;44109;52.398;7.024;2023-05-15T04:06:22;39.60;;;36.38;;
58302;SDS011;44109;52.398;7.024;2023-05-15T04:08:50;38.58;;;34.97;;
58302;SDS011;44109;52.398;7.024;2023-05-15T04:11:19;42.22;;;38.45;;
58302;SDS011;44109;52.398;7.024;2023-05-15T04:13:48;37.38;;;34.20;;
58302;SDS011;44109;52.398;7.024;2023-05-15T04:16:16;37.85;;;34.42;;
58302;SDS011;44109;52.398;7.024;2023-05-15T04:18:44;38.50;;;35.15;;
58302;SDS011;44109;52.398;7.024;2023-05-15T04:21:11;38.72;;;35.45;;
58302;SDS011;44109;52.398;7.024;2023-05-15T04:23:39;39.83;;;36.10;;
58302;SDS011;44109;52.398;7.024;2023-05-15T04:26:07;39.05;;;35.60;;
58302;SDS011;44109;52.398;7.024;2023-05-15T04:28:36;39.25;;;36.08;;
58302;SDS011;44109;52.398;7.024;2023-05-15T04:31:04;38.10;;;34.80;;
58302;SDS011;44109;52.398;7.024;2023-05-15T04:33:31;36.85;;;33.50;;
58302;SDS011;44109;52.398;7.024;2023-05-15T04:35:59;36.90;;;33.70;;
58302;SDS011;44109;52.398;7.024;2023-05-15T04:38:27;35.72;;;32.70;;
58302;SDS011;44109;52.398;7.024;2023-05-15T04:40:54;35.28;;;32.28;;
58302;SDS011;44109;52.398;7.024;2023-05-15T04:43:22;37.78;;;34.33;;
58302;SDS011;44109;52.398;7.024;2023-05-15T04:45:51;34.58;;;31.48;;
58302;SDS011;44109;52.398;7.024;2023-05-15T04:48:19;32.95;;;29.80;;
58302;SDS011;44109;52.398;7.024;2023-05-15T04:50:46;29.77;;;26.88;;
58302;SDS011;44109;52.398;7.024;2023-05-15T04:53:14;28.90;;;26.20;;
58302;SDS011;44109;52.398;7.024;2023-05-15T04:55:42;29.35;;;26.77;;
58302;SDS011;44109;52.398;7.024;2023-05-15T04:58:09;30.35;;;27.23;;
58302;SDS011;44109;52.398;7.024;2023-05-15T05:00:37;28.05;;;25.52;;
58302;SDS011;44109;52.398;7.024;2023-05-15T05:03:06;32.17;;;29.17;;
58302;SDS011;44109;52.398;7.024;2023-05-15T05:05:34;26.15;;;23.80;;
58302;SDS011;44109;52.398;7.024;2023-05-15T05:08:02;27.33;;;24.48;;
58302;SDS011;44109;52.398;7.024;2023-05-15T05:10:29;25.73;;;23.10;;
58302;SDS011;44109;52.398;7.024;2023-05-15T05:12:57;29.10;;;26.25;;
58302;SDS011;44109;52.398;7.024;2023-05-15T05:15:25;29.02;;;26.05;;
58302;SDS011;44109;52.398;7.024;2023-05-15T05:17:52;27.55;;;24.60;;
58302;SDS011;44109;52.398;7.024;2023-05-15T05:20:24;26.67;;;23.15;;
58302;SDS011;44109;52.398;7.024;2023-05-15T05:22:52;28.52;;;25.58;;
58302;SDS011;44109;52.398;7.024;2023-05-15T05:25:19;29.90;;;26.50;;
58302;SDS011;44109;52.398;7.024;2023-05-15T05:27:47;25.50;;;22.85;;
58302;SDS011;44109;52.398;7.024;2023-05-15T05:30:15;24.33;;;22.10;;
58302;SDS011;44109;52.398;7.024;2023-05-15T05:32:43;27.02;;;24.40;;
58302;SDS011;44109;52.398;7.024;2023-05-15T05:35:10;25.92;;;23.05;;
58302;SDS011;44109;52.398;7.024;2023-05-15T05:37:39;24.20;;;21.83;;
58302;SDS011;44109;52.398;7.024;2023-05-15T05:40:07;24.33;;;22.02;;
58302;SDS011;44109;52.398;7.024;2023-05-15T05:42:36;25.08;;;22.30;;
58302;SDS011;44109;52.398;7.024;2023-05-15T05:45:04;31.55;;;28.88;;
58302;SDS011;44109;52.398;7.024;2023-05-15T05:47:33;22.40;;;20.17;;
58302;SDS011;44109;52.398;7.024;2023-05-15T05:50:01;25.20;;;22.38;;
58302;SDS011;44109;52.398;7.024;2023-05-15T05:52:29;24.75;;;22.42;;
58302;SDS011;44109;52.398;7.024;2023-05-15T05:54:58;25.23;;;22.73;;
58302;SDS011;44109;52.398;7.024;2023-05-15T05:57:25;22.90;;;20.65;;
58302;SDS011;44109;52.398;7.024;2023-05-15T05:59:53;20.88;;;18.48;;
58302;SDS011;44109;52.398;7.024;2023-05-15T06:02:21;21.75;;;19.48;;
58302;SDS011;44109;52.398;7.024;2023-05-15T06:04:48;19.48;;;17.45;;
58302;SDS011;44109;52.398;7.024;2023-05-15T06:07:16;21.63;;;18.65;;
58302;SDS011;44109;52.398;7.024;2023-05-15T06:09:44;23.40;;;21.15;;
58302;SDS011;44109;52.398;7.024;2023-05-15T06:12:14;21.10;;;19.08;;
58302;SDS011;44109;52.398;7.024;2023-05-15T06:14:42;32.45;;;29.67;;
58302;SDS011;44109;52.398;7.024;2023-05-15T06:17:10;22.60;;;20.08;;
58302;SDS011;44109;52.398;7.024;2023-05-15T06:19:38;21.55;;;19.48;;
58302;SDS011;44109;52.398;7.024;2023-05-15T06:22:05;26.42;;;24.02;;
58302;SDS011;44109;52.398;7.024;2023-05-15T06:24:33;24.48;;;22.02;;
58302;SDS011;44109;52.398;7.024;2023-05-15T06:27:00;22.60;;;20.67;;
58302;SDS011;44109;52.398;7.024;2023-05-15T06:29:29;21.60;;;19.00;;
58302;SDS011;44109;52.398;7.024;2023-05-15T06:31:57;18.33;;;16.20;;
58302;SDS011;44109;52.398;7.024;2023-05-15T06:34:25;19.00;;;15.80;;
58302;SDS011;44109;52.398;7.024;2023-05-15T06:36:52;20.20;;;17.92;;
58302;SDS011;44109;52.398;7.024;2023-05-15T06:39:20;19.63;;;17.10;;
58302;SDS011;44109;52.398;7.024;2023-05-15T06:41:48;19.23;;;17.42;;
58302;SDS011;44109;52.398;7.024;2023-05-15T06:44:15;16.42;;;14.77;;
58302;SDS011;44109;52.398;7.024;2023-05-15T06:46:44;24.38;;;22.15;;
58302;SDS011;44109;52.398;7.024;2023-05-15T06:49:12;17.77;;;15.88;;
58302;SDS011;44109;52.398;7.024;2023-05-15T06:51:39;18.08;;;16.33;;
58302;SDS011;44109;52.398;7.024;2023-05-15T06:54:07;18.52;;;16.55;;
58302;SDS011;44109;52.398;7.024;2023-05-15T06:56:35;19.27;;;13.70;;
58302;SDS011;44109;52.398;7.024;2023-05-15T06:59:03;16.75;;;12.80;;
58302;SDS011;44109;52.398;7.024;2023-05-15T07:01:30;21.27;;;14.52;;
58302;SDS011;44109;52.398;7.024;2023-05-15T07:03:59;16.70;;;14.93;;
58302;SDS011;44109;52.398;7.024;2023-05-15T07:06:27;15.75;;;14.18;;
58302;SDS011;44109;52.398;7.024;2023-05-15T07:08:56;15.90;;;14.25;;
58302;SDS011;44109;52.398;7.024;2023-05-15T07:11:24;20.33;;;14.13;;
58302;SDS011;44109;52.398;7.024;2023-05-15T07:13:52;15.63;;;14.02;;
58302;SDS011;44109;52.398;7.024;2023-05-15T07:16:19;18.10;;;15.57;;
58302;SDS011;44109;52.398;7.024;2023-05-15T07:18:47;18.02;;;15.38;;
58302;SDS011;44109;52.398;7.024;2023-05-15T07:21:16;17.55;;;15.68;;
58302;SDS011;44109;52.398;7.024;2023-05-15T07:23:44;18.27;;;15.05;;
58302;SDS011;44109;52.398;7.024;2023-05-15T07:26:12;17.02;;;13.63;;
58302;SDS011;44109;52.398;7.024;2023-05-15T07:28:40;20.48;;;18.27;;
58302;SDS011;44109;52.398;7.024;2023-05-15T07:31:08;17.88;;;16.02;;
58302;SDS011;44109;52.398;7.024;2023-05-15T07:33:35;18.98;;;14.07;;
58302;SDS011;44109;52.398;7.024;2023-05-15T07:36:03;24.60;;;22.08;;
58302;SDS011;44109;52.398;7.024;2023-05-15T07:38:33;15.57;;;13.48;;
58302;SDS011;44109;52.398;7.024;2023-05-15T07:41:01;22.13;;;14.23;;
58302;SDS011;44109;52.398;7.024;2023-05-15T07:43:29;16.83;;;15.07;;
58302;SDS011;44109;52.398;7.024;2023-05-15T07:45:56;15.15;;;12.98;;
58302;SDS011;44109;52.398;7.024;2023-05-15T07:48:24;19.05;;;16.63;;
58302;SDS011;44109;52.398;7.024;2023-05-15T07:50:52;17.75;;;15.95;;
58302;SDS011;44109;52.398;7.024;2023-05-15T07:53:20;17.13;;;15.00;;
58302;SDS011;44109;52.398;7.024;2023-05-15T07:55:49;22.02;;;14.43;;
58302;SDS011;44109;52.398;7.024;2023-05-15T07:58:16;18.48;;;14.25;;
58302;SDS011;44109;52.398;7.024;2023-05-15T08:00:44;20.83;;;16.63;;
58302;SDS011;44109;52.398;7.024;2023-05-15T08:03:12;15.52;;;13.90;;
58302;SDS011;44109;52.398;7.024;2023-05-15T08:05:39;17.77;;;16.00;;
58302;SDS011;44109;52.398;7.024;2023-05-15T08:08:07;16.98;;;14.02;;
58302;SDS011;44109;52.398;7.024;2023-05-15T08:10:34;21.52;;;14.38;;
58302;SDS011;44109;52.398;7.024;2023-05-15T08:13:03;20.52;;;15.30;;
58302;SDS011;44109;52.398;7.024;2023-05-15T08:15:31;19.83;;;17.83;;
58302;SDS011;44109;52.398;7.024;2023-05-15T08:17:58;19.85;;;17.23;;
58302;SDS011;44109;52.398;7.024;2023-05-15T08:20:26;18.35;;;16.58;;
58302;SDS011;44109;52.398;7.024;2023-05-15T08:22:54;19.80;;;17.85;;
58302;SDS011;44109;52.398;7.024;2023-05-15T08:25:21;17.20;;;15.70;;
58302;SDS011;44109;52.398;7.024;2023-05-15T08:27:49;16.15;;;14.63;;
58302;SDS011;44109;52.398;7.024;2023-05-15T08:30:18;29.10;;;16.95;;
58302;SDS011;44109;52.398;7.024;2023-05-15T08:32:45;18.17;;;12.93;;
58302;SDS011;44109;52.398;7.024;2023-05-15T08:35:13;14.15;;;10.95;;
58302;SDS011;44109;52.398;7.024;2023-05-15T08:37:41;11.52;;;9.95;;
58302;SDS011;44109;52.398;7.024;2023-05-15T08:40:09;13.43;;;9.65;;
58302;SDS011;44109;52.398;7.024;2023-05-15T08:42:42;13.15;;;9.70;;
58302;SDS011;44109;52.398;7.024;2023-05-15T08:45:11;14.90;;;9.95;;
58302;SDS011;44109;52.398;7.024;2023-05-15T08:47:41;12.65;;;8.90;;
58302;SDS011;44109;52.398;7.024;2023-05-15T08:50:10;10.88;;;8.32;;
58302;SDS011;44109;52.398;7.024;2023-05-15T08:52:40;11.65;;;8.32;;
58302;SDS011;44109;52.398;7.024;2023-05-15T08:55:10;15.45;;;10.18;;
58302;SDS011;44109;52.398;7.024;2023-05-15T08:57:39;12.43;;;8.80;;
58302;SDS011;44109;52.398;7.024;2023-05-15T09:00:09;14.43;;;9.20;;
58302;SDS011;44109;52.398;7.024;2023-05-15T09:02:47;13.35;;;9.43;;
58302;SDS011;44109;52.398;7.024;2023-05-15T09:05:14;14.30;;;8.98;;
58302;SDS011;44109;52.398;7.024;2023-05-15T09:07:42;16.45;;;9.48;;
58302;SDS011;44109;52.398;7.024;2023-05-15T09:10:12;15.57;;;7.88;;
58302;SDS011;44109;52.398;7.024;2023-05-15T09:12:41;14.57;;;8.45;;
58302;SDS011;44109;52.398;7.024;2023-05-15T09:15:11;13.98;;;8.63;;
58302;SDS011;44109;52.398;7.024;2023-05-15T09:17:42;15.50;;;9.48;;
58302;SDS011;44109;52.398;7.024;2023-05-15T09:20:24;15.43;;;10.57;;
58302;SDS011;44109;52.398;7.024;2023-05-15T09:22:54;13.82;;;8.02;;
58302;SDS011;44109;52.398;7.024;2023-05-15T09:25:32;11.57;;;8.57;;
58302;SDS011;44109;52.398;7.024;2023-05-15T09:28:05;10.60;;;7.20;;
58302;SDS011;44109;52.398;7.024;2023-05-15T09:30:36;12.30;;;8.40;;
58302;SDS011;44109;52.398;7.024;2023-05-15T09:33:04;14.02;;;8.93;;
58302;SDS011;44109;52.398;7.024;2023-05-15T09:35:34;11.70;;;8.15;;
58302;SDS011;44109;52.398;7.024;2023-05-15T09:38:04;11.88;;;8.45;;
58302;SDS011;44109;52.398;7.024;2023-05-15T09:40:36;13.13;;;8.75;;
58302;SDS011;44109;52.398;7.024;2023-05-15T09:43:05;13.23;;;10.35;;
58302;SDS011;44109;52.398;7.024;2023-05-15T09:45:36;14.93;;;8.23;;
58302;SDS011;44109;52.398;7.024;2023-05-15T09:48:04;13.48;;;8.57;;
58302;SDS011;44109;52.398;7.024;2023-05-15T09:50:36;12.07;;;7.90;;
58302;SDS011;44109;52.398;7.024;2023-05-15T09:53:05;9.45;;;7.18;;
58302;SDS011;44109;52.398;7.024;2023-05-15T09:55:39;9.15;;;6.85;;
58302;SDS011;44109;52.398;7.024;2023-05-15T09:58:09;12.75;;;6.97;;
58302;SDS011;44109;52.398;7.024;2023-05-15T10:00:40;9.95;;;6.60;;
58302;SDS011;44109;52.398;7.024;2023-05-15T10:03:09;13.55;;;6.90;;
58302;SDS011;44109;52.398;7.024;2023-05-15T10:05:39;10.27;;;7.55;;
58302;SDS011;44109;52.398;7.024;2023-05-15T10:08:07;11.07;;;7.50;;
58302;SDS011;44109;52.398;7.024;2023-05-15T10:10:35;8.77;;;5.72;;
58302;SDS011;44109;52.398;7.024;2023-05-15T10:13:02;9.85;;;7.13;;
58302;SDS011;44109;52.398;7.024;2023-05-15T10:15:33;9.98;;;6.65;;
58302;SDS011;44109;52.398;7.024;2023-05-15T10:18:01;8.95;;;6.80;;
58302;SDS011;44109;52.398;7.024;2023-05-15T10:20:31;11.15;;;7.50;;
58302;SDS011;44109;52.398;7.024;2023-05-15T10:23:03;11.68;;;6.90;;
58302;SDS011;44109;52.398;7.024;2023-05-15T10:25:35;9.50;;;6.75;;
58302;SDS011;44109;52.398;7.024;2023-05-15T10:28:09;8.30;;;5.30;;
58302;SDS011;44109;52.398;7.024;2023-05-15T10:30:38;9.05;;;5.07;;
58302;SDS011;44109;52.398;7.024;2023-05-15T10:33:06;8.50;;;6.50;;
58302;SDS011;44109;52.398;7.024;2023-05-15T10:35:34;9.75;;;5.18;;
58302;SDS011;44109;52.398;7.024;2023-05-15T10:38:06;8.73;;;5.43;;
58302;SDS011;44109;52.398;7.024;2023-05-15T10:40:35;9.38;;;4.97;;
58302;SDS011;44109;52.398;7.024;2023-05-15T10:43:04;8.75;;;5.32;;
58302;SDS011;44109;52.398;7.024;2023-05-15T10:45:36;7.63;;;4.93;;
58302;SDS011;44109;52.398;7.024;2023-05-15T10:48:05;8.60;;;5.35;;
58302;SDS011;44109;52.398;7.024;2023-05-15T10:50:37;9.93;;;5.65;;
58302;SDS011;44109;52.398;7.024;2023-05-15T10:53:06;9.10;;;5.15;;
58302;SDS011;44109;52.398;7.024;2023-05-15T10:55:35;9.00;;;7.20;;
58302;SDS011;44109;52.398;7.024;2023-05-15T10:58:07;8.07;;;5.22;;
58302;SDS011;44109;52.398;7.024;2023-05-15T11:00:40;6.90;;;4.38;;
58302;SDS011;44109;52.398;7.024;2023-05-15T11:03:12;10.30;;;7.88;;
58302;SDS011;44109;52.398;7.024;2023-05-15T11:08:38;5.95;;;4.07;;
58302;SDS011;44109;52.398;7.024;2023-05-15T11:11:07;4.75;;;3.10;;
58302;SDS011;44109;52.398;7.024;2023-05-15T11:16:55;5.95;;;3.97;;
58302;SDS011;44109;52.398;7.024;2023-05-15T11:19:24;5.45;;;3.63;;
58302;SDS011;44109;52.398;7.024;2023-05-15T11:22:00;4.97;;;3.80;;
58302;SDS011;44109;52.398;7.024;2023-05-15T11:24:49;6.25;;;3.55;;
58302;SDS011;44109;52.398;7.024;2023-05-15T11:27:20;6.10;;;3.83;;
58302;SDS011;44109;52.398;7.024;2023-05-15T11:30:10;7.00;;;3.60;;
58302;SDS011;44109;52.398;7.024;2023-05-15T11:32:41;4.55;;;3.72;;
58302;SDS011;44109;52.398;7.024;2023-05-15T11:35:22;6.80;;;3.35;;
58302;SDS011;44109;52.398;7.024;2023-05-15T11:37:53;6.35;;;4.80;;
58302;SDS011;44109;52.398;7.024;2023-05-15T11:40:25;7.53;;;3.70;;
58302;SDS011;44109;52.398;7.024;2023-05-15T11:42:58;5.15;;;3.75;;
58302;SDS011;44109;52.398;7.024;2023-05-15T11:45:45;4.65;;;3.40;;
58302;SDS011;44109;52.398;7.024;2023-05-15T11:48:15;5.30;;;3.58;;
58302;SDS011;44109;52.398;7.024;2023-05-15T11:50:45;4.00;;;3.28;;
58302;SDS011;44109;52.398;7.024;2023-05-15T11:53:13;6.38;;;3.08;;
58302;SDS011;44109;52.398;7.024;2023-05-15T11:55:43;5.40;;;3.78;;
58302;SDS011;44109;52.398;7.024;2023-05-15T11:58:11;6.38;;;3.95;;
58302;SDS011;44109;52.398;7.024;2023-05-15T12:00:41;5.38;;;4.85;;
58302;SDS011;44109;52.398;7.024;2023-05-15T12:03:12;6.15;;;4.18;;
58302;SDS011;44109;52.398;7.024;2023-05-15T12:05:42;7.40;;;3.92;;
58302;SDS011;44109;52.398;7.024;2023-05-15T12:08:10;5.85;;;5.25;;
58302;SDS011;44109;52.398;7.024;2023-05-15T12:10:39;6.25;;;4.78;;
58302;SDS011;44109;52.398;7.024;2023-05-15T12:13:10;7.03;;;4.32;;
58302;SDS011;44109;52.398;7.024;2023-05-15T12:15:39;6.90;;;4.88;;
58302;SDS011;44109;52.398;7.024;2023-05-15T12:18:09;7.60;;;4.63;;
58302;SDS011;44109;52.398;7.024;2023-05-15T12:20:38;6.22;;;3.80;;
58302;SDS011;44109;52.398;7.024;2023-05-15T12:23:09;6.65;;;4.13;;
58302;SDS011;44109;52.398;7.024;2023-05-15T12:25:40;5.70;;;4.30;;
58302;SDS011;44109;52.398;7.024;2023-05-15T12:28:12;5.53;;;4.15;;
58302;SDS011;44109;52.398;7.024;2023-05-15T12:30:41;8.00;;;4.72;;
58302;SDS011;44109;52.398;7.024;2023-05-15T12:33:10;6.18;;;3.70;;
58302;SDS011;44109;52.398;7.024;2023-05-15T12:35:40;4.60;;;3.80;;
58302;SDS011;44109;52.398;7.024;2023-05-15T12:38:13;5.55;;;3.88;;
58302;SDS011;44109;52.398;7.024;2023-05-15T12:40:42;6.38;;;4.78;;
58302;SDS011;44109;52.398;7.024;2023-05-15T12:43:12;7.78;;;4.47;;
58302;SDS011;44109;52.398;7.024;2023-05-15T12:45:40;7.80;;;5.28;;
58302;SDS011;44109;52.398;7.024;2023-05-15T12:48:12;7.65;;;5.13;;
58302;SDS011;44109;52.398;7.024;2023-05-15T12:50:43;8.00;;;6.13;;
58302;SDS011;44109;52.398;7.024;2023-05-15T12:53:12;9.93;;;6.35;;
58302;SDS011;44109;52.398;7.024;2023-05-15T12:55:42;7.72;;;6.25;;
58302;SDS011;44109;52.398;7.024;2023-05-15T12:58:13;7.97;;;6.25;;
58302;SDS011;44109;52.398;7.024;2023-05-15T13:00:43;7.22;;;5.47;;
58302;SDS011;44109;52.398;7.024;2023-05-15T13:03:12;8.25;;;4.85;;
58302;SDS011;44109;52.398;7.024;2023-05-15T13:05:41;6.75;;;5.07;;
58302;SDS011;44109;52.398;7.024;2023-05-15T13:08:13;6.18;;;5.03;;
58302;SDS011;44109;52.398;7.024;2023-05-15T13:10:43;10.47;;;6.33;;
58302;SDS011;44109;52.398;7.024;2023-05-15T13:13:13;6.07;;;4.63;;
58302;SDS011;44109;52.398;7.024;2023-05-15T13:15:43;6.05;;;4.38;;
58302;SDS011;44109;52.398;7.024;2023-05-15T13:18:11;7.53;;;5.13;;
58302;SDS011;44109;52.398;7.024;2023-05-15T13:20:41;5.85;;;4.00;;
58302;SDS011;44109;52.398;7.024;2023-05-15T13:23:11;6.03;;;4.00;;
58302;SDS011;44109;52.398;7.024;2023-05-15T13:25:41;6.32;;;4.40;;
58302;SDS011;44109;52.398;7.024;2023-05-15T13:28:10;5.60;;;4.40;;
58302;SDS011;44109;52.398;7.024;2023-05-15T13:30:40;5.63;;;4.32;;
58302;SDS011;44109;52.398;7.024;2023-05-15T13:33:08;5.25;;;4.07;;
58302;SDS011;44109;52.398;7.024;2023-05-15T13:35:38;4.72;;;3.65;;
58302;SDS011;44109;52.398;7.024;2023-05-15T13:38:07;5.40;;;2.85;;
58302;SDS011;44109;52.398;7.024;2023-05-15T13:40:36;7.63;;;4.18;;
58302;SDS011;44109;52.398;7.024;2023-05-15T13:43:03;6.68;;;4.15;;
58302;SDS011;44109;52.398;7.024;2023-05-15T13:45:31;4.68;;;3.08;;
58302;SDS011;44109;52.398;7.024;2023-05-15T13:48:00;4.40;;;2.70;;
58302;SDS011;44109;52.398;7.024;2023-05-15T13:50:29;4.18;;;3.22;;
58302;SDS011;44109;52.398;7.024;2023-05-15T13:52:56;4.28;;;2.90;;
58302;SDS011;44109;52.398;7.024;2023-05-15T13:55:24;5.97;;;3.75;;
58302;SDS011;44109;52.398;7.024;2023-05-15T13:57:52;6.90;;;6.30;;
58302;SDS011;44109;52.398;7.024;2023-05-15T14:00:19;6.68;;;6.05;;
58302;SDS011;44109;52.398;7.024;2023-05-15T14:02:47;5.63;;;3.28;;
58302;SDS011;44109;52.398;7.024;2023-05-15T14:05:16;3.35;;;2.78;;
58302;SDS011;44109;52.398;7.024;2023-05-15T14:07:44;3.92;;;3.53;;
58302;SDS011;44109;52.398;7.024;2023-05-15T14:10:12;5.68;;;4.75;;
58302;SDS011;44109;52.398;7.024;2023-05-15T14:12:39;3.65;;;3.17;;
58302;SDS011;44109;52.398;7.024;2023-05-15T14:15:08;5.13;;;3.35;;
58302;SDS011;44109;52.398;7.024;2023-05-15T14:17:38;3.13;;;2.80;;
58302;SDS011;44109;52.398;7.024;2023-05-15T14:20:06;4.38;;;2.75;;
58302;SDS011;44109;52.398;7.024;2023-05-15T14:22:39;5.60;;;3.85;;
58302;SDS011;44109;52.398;7.024;2023-05-15T14:25:07;9.07;;;3.50;;
58302;SDS011;44109;52.398;7.024;2023-05-15T14:27:35;2.67;;;2.47;;
58302;SDS011;44109;52.398;7.024;2023-05-15T14:30:04;5.38;;;3.47;;
58302;SDS011;44109;52.398;7.024;2023-05-15T14:32:33;3.58;;;3.28;;
58302;SDS011;44109;52.398;7.024;2023-05-15T14:35:00;3.63;;;3.33;;
58302;SDS011;44109;52.398;7.024;2023-05-15T14:37:28;3.45;;;2.83;;
58302;SDS011;44109;52.398;7.024;2023-05-15T14:39:57;4.10;;;3.70;;
58302;SDS011;44109;52.398;7.024;2023-05-15T14:42:25;6.68;;;5.00;;
58302;SDS011;44109;52.398;7.024;2023-05-15T14:44:53;4.40;;;3.38;;
58302;SDS011;44109;52.398;7.024;2023-05-15T14:47:20;3.88;;;2.92;;
58302;SDS011;44109;52.398;7.024;2023-05-15T14:49:50;6.28;;;3.35;;
58302;SDS011;44109;52.398;7.024;2023-05-15T14:52:17;3.78;;;3.03;;